sensor_id;sensor_type;location;lat;lon;timestamp;P1;P2;P0
44045;PMS7003;29709;52.396;16.796;2023-04-24T00:02:06;20;19;14
44045;PMS7003;29709;52.396;16.796;2023-04-24T00:05:23;19;18;13
44045;PMS7003;29709;52.396;16.796;2023-04-24T00:08:37;19;18;14
44045;PMS7003;29709;52.396;16.796;2023-04-24T00:11:50;21;19;13
44045;PMS7003;29709;52.396;16.796;2023-04-24T00:15:04;20;18;13
44045;PMS7003;29709;52.396;16.796;2023-04-24T00:18:18;19;18;14
44045;PMS7003;29709;52.396;16.796;2023-04-24T00:21:32;19;17;12
44045;PMS7003;29709;52.396;16.796;2023-04-24T00:24:46;15;13;11
44045;PMS7003;29709;52.396;16.796;2023-04-24T00:27:59;14;13;10
44045;PMS7003;29709;52.396;16.796;2023-04-24T00:31:12;18;15;11
44045;PMS7003;29709;52.396;16.796;2023-04-24T00:34:26;18;16;14
44045;PMS7003;29709;52.396;16.796;2023-04-24T00:37:39;20;16;12
44045;PMS7003;29709;52.396;16.796;2023-04-24T00:40:52;18;14;12
44045;PMS7003;29709;52.396;16.796;2023-04-24T00:44:06;17;14;11
44045;PMS7003;29709;52.396;16.796;2023-04-24T00:47:20;15;15;11
44045;PMS7003;29709;52.396;16.796;2023-04-24T00:50:35;16;15;11
44045;PMS7003;29709;52.396;16.796;2023-04-24T00:53:49;16;14;12
44045;PMS7003;29709;52.396;16.796;2023-04-24T00:57:05;16;15;12
44045;PMS7003;29709;52.396;16.796;2023-04-24T01:00:19;16;14;12
44045;PMS7003;29709;52.396;16.796;2023-04-24T01:03:33;18;13;11
44045;PMS7003;29709;52.396;16.796;2023-04-24T01:06:49;16;15;12
44045;PMS7003;29709;52.396;16.796;2023-04-24T01:10:03;16;13;10
44045;PMS7003;29709;52.396;16.796;2023-04-24T01:13:17;13;13;10
44045;PMS7003;29709;52.396;16.796;2023-04-24T01:16:31;18;14;11
44045;PMS7003;29709;52.396;16.796;2023-04-24T01:19:45;17;12;9
44045;PMS7003;29709;52.396;16.796;2023-04-24T01:22:59;11;10;9
44045;PMS7003;29709;52.396;16.796;2023-04-24T01:26:14;10;10;8
44045;PMS7003;29709;52.396;16.796;2023-04-24T01:29:28;10;10;8
44045;PMS7003;29709;52.396;16.796;2023-04-24T01:32:42;10;9;7
44045;PMS7003;29709;52.396;16.796;2023-04-24T01:35:57;12;10;8
44045;PMS7003;29709;52.396;16.796;2023-04-24T01:39:10;15;10;8
44045;PMS7003;29709;52.396;16.796;2023-04-24T01:42:23;13;10;8
44045;PMS7003;29709;52.396;16.796;2023-04-24T01:45:37;13;10;8
44045;PMS7003;29709;52.396;16.796;2023-04-24T01:48:50;14;12;9
44045;PMS7003;29709;52.396;16.796;2023-04-24T01:52:04;12;12;10
44045;PMS7003;29709;52.396;16.796;2023-04-24T01:55:18;11;10;8
44045;PMS7003;29709;52.396;16.796;2023-04-24T01:58:31;10;9;6
44045;PMS7003;29709;52.396;16.796;2023-04-24T02:01:45;16;12;11
44045;PMS7003;29709;52.396;16.796;2023-04-24T02:04:58;12;11;9
44045;PMS7003;29709;52.396;16.796;2023-04-24T02:08:11;14;11;9
44045;PMS7003;29709;52.396;16.796;2023-04-24T02:11:26;12;9;6
44045;PMS7003;29709;52.396;16.796;2023-04-24T02:14:39;13;10;9
44045;PMS7003;29709;52.396;16.796;2023-04-24T02:17:53;13;11;9
44045;PMS7003;29709;52.396;16.796;2023-04-24T02:21:06;7;7;4
44045;PMS7003;29709;52.396;16.796;2023-04-24T02:24:19;11;10;8
44045;PMS7003;29709;52.396;16.796;2023-04-24T02:27:32;11;10;7
44045;PMS7003;29709;52.396;16.796;2023-04-24T02:30:45;12;10;8
44045;PMS7003;29709;52.396;16.796;2023-04-24T02:33:59;10;8;6
44045;PMS7003;29709;52.396;16.796;2023-04-24T02:37:12;9;8;7
44045;PMS7003;29709;52.396;16.796;2023-04-24T02:40:25;8;7;5
44045;PMS7003;29709;52.396;16.796;2023-04-24T02:43:38;7;7;5
44045;PMS7003;29709;52.396;16.796;2023-04-24T02:46:51;10;8;7
44045;PMS7003;29709;52.396;16.796;2023-04-24T02:50:05;11;9;7
44045;PMS7003;29709;52.396;16.796;2023-04-24T02:53:19;5;5;2
44045;PMS7003;29709;52.396;16.796;2023-04-24T02:56:32;8;7;5
44045;PMS7003;29709;52.396;16.796;2023-04-24T02:59:45;8;6;5
44045;PMS7003;29709;52.396;16.796;2023-04-24T03:02:59;11;6;5
44045;PMS7003;29709;52.396;16.796;2023-04-24T03:06:12;8;7;6
44045;PMS7003;29709;52.396;16.796;2023-04-24T03:09:25;10;9;7
44045;PMS7003;29709;52.396;16.796;2023-04-24T03:12:38;9;8;6
44045;PMS7003;29709;52.396;16.796;2023-04-24T03:15:51;7;6;5
44045;PMS7003;29709;52.396;16.796;2023-04-24T03:19:06;9;7;5
44045;PMS7003;29709;52.396;16.796;2023-04-24T03:22:19;9;8;6
44045;PMS7003;29709;52.396;16.796;2023-04-24T03:25:32;8;7;6
44045;PMS7003;29709;52.396;16.796;2023-04-24T03:28:45;10;8;6
44045;PMS7003;29709;52.396;16.796;2023-04-24T03:31:58;7;7;6
44045;PMS7003;29709;52.396;16.796;2023-04-24T03:35:12;8;8;6
44045;PMS7003;29709;52.396;16.796;2023-04-24T03:38:25;8;8;6
44045;PMS7003;29709;52.396;16.796;2023-04-24T03:41:38;7;6;6
44045;PMS7003;29709;52.396;16.796;2023-04-24T03:44:51;7;6;5
44045;PMS7003;29709;52.396;16.796;2023-04-24T03:48:04;7;5;4
44045;PMS7003;29709;52.396;16.796;2023-04-24T03:51:18;7;6;5
44045;PMS7003;29709;52.396;16.796;2023-04-24T03:54:31;7;6;5
44045;PMS7003;29709;52.396;16.796;2023-04-24T03:57:44;8;7;5
44045;PMS7003;29709;52.396;16.796;2023-04-24T04:00:57;7;6;5
44045;PMS7003;29709;52.396;16.796;2023-04-24T04:04:11;7;7;6
44045;PMS7003;29709;52.396;16.796;2023-04-24T04:07:24;8;8;6
44045;PMS7003;29709;52.396;16.796;2023-04-24T04:10:38;8;8;6
44045;PMS7003;29709;52.396;16.796;2023-04-24T04:13:51;10;8;6
44045;PMS7003;29709;52.396;16.796;2023-04-24T04:17:04;8;8;6
44045;PMS7003;29709;52.396;16.796;2023-04-24T04:20:17;7;6;4
44045;PMS7003;29709;52.396;16.796;2023-04-24T04:23:30;10;9;8
44045;PMS7003;29709;52.396;16.796;2023-04-24T04:26:44;13;11;8
44045;PMS7003;29709;52.396;16.796;2023-04-24T04:30:00;9;8;6
44045;PMS7003;29709;52.396;16.796;2023-04-24T04:33:17;9;8;7
44045;PMS7003;29709;52.396;16.796;2023-04-24T04:36:31;9;8;6
44045;PMS7003;29709;52.396;16.796;2023-04-24T04:39:49;11;10;7
44045;PMS7003;29709;52.396;16.796;2023-04-24T04:43:02;9;8;6
44045;PMS7003;29709;52.396;16.796;2023-04-24T04:46:16;11;10;7
44045;PMS7003;29709;52.396;16.796;2023-04-24T04:49:29;9;8;6
44045;PMS7003;29709;52.396;16.796;2023-04-24T04:52:43;10;9;7
44045;PMS7003;29709;52.396;16.796;2023-04-24T04:55:57;11;8;6
44045;PMS7003;29709;52.396;16.796;2023-04-24T04:59:10;10;8;7
44045;PMS7003;29709;52.396;16.796;2023-04-24T05:02:25;9;8;7
44045;PMS7003;29709;52.396;16.796;2023-04-24T05:05:38;7;5;4
44045;PMS7003;29709;52.396;16.796;2023-04-24T05:08:53;8;8;6
44045;PMS7003;29709;52.396;16.796;2023-04-24T05:12:09;9;8;7
44045;PMS7003;29709;52.396;16.796;2023-04-24T05:15:22;11;10;8
44045;PMS7003;29709;52.396;16.796;2023-04-24T05:18:36;9;9;7
44045;PMS7003;29709;52.396;16.796;2023-04-24T05:21:49;9;8;6
44045;PMS7003;29709;52.396;16.796;2023-04-24T05:25:02;12;11;8
44045;PMS7003;29709;52.396;16.796;2023-04-24T05:28:15;10;8;6
44045;PMS7003;29709;52.396;16.796;2023-04-24T05:31:29;9;7;6
44045;PMS7003;29709;52.396;16.796;2023-04-24T05:34:42;6;5;3
44045;PMS7003;29709;52.396;16.796;2023-04-24T05:37:55;12;10;8
44045;PMS7003;29709;52.396;16.796;2023-04-24T05:41:08;13;9;8
44045;PMS7003;29709;52.396;16.796;2023-04-24T05:44:22;11;10;8
44045;PMS7003;29709;52.396;16.796;2023-04-24T05:47:35;12;10;8
44045;PMS7003;29709;52.396;16.796;2023-04-24T05:50:49;11;10;8
44045;PMS7003;29709;52.396;16.796;2023-04-24T05:54:04;10;9;7
44045;PMS7003;29709;52.396;16.796;2023-04-24T05:57:17;10;9;7
44045;PMS7003;29709;52.396;16.796;2023-04-24T06:00:30;11;8;7
44045;PMS7003;29709;52.396;16.796;2023-04-24T06:03:43;11;10;7
44045;PMS7003;29709;52.396;16.796;2023-04-24T06:06:57;11;8;7
44045;PMS7003;29709;52.396;16.796;2023-04-24T06:10:10;9;8;6
44045;PMS7003;29709;52.396;16.796;2023-04-24T06:13:23;13;10;9
44045;PMS7003;29709;52.396;16.796;2023-04-24T06:16:37;11;9;8
44045;PMS7003;29709;52.396;16.796;2023-04-24T06:19:51;10;7;5
44045;PMS7003;29709;52.396;16.796;2023-04-24T06:23:04;9;9;7
44045;PMS7003;29709;52.396;16.796;2023-04-24T06:26:17;11;9;7
44045;PMS7003;29709;52.396;16.796;2023-04-24T06:29:31;12;10;8
44045;PMS7003;29709;52.396;16.796;2023-04-24T06:32:46;10;8;6
44045;PMS7003;29709;52.396;16.796;2023-04-24T06:35:59;11;9;7
44045;PMS7003;29709;52.396;16.796;2023-04-24T06:39:12;9;9;6
44045;PMS7003;29709;52.396;16.796;2023-04-24T06:42:25;7;6;5
44045;PMS7003;29709;52.396;16.796;2023-04-24T06:45:38;12;11;9
44045;PMS7003;29709;52.396;16.796;2023-04-24T06:48:52;13;12;10
44045;PMS7003;29709;52.396;16.796;2023-04-24T06:52:09;11;9;8
44045;PMS7003;29709;52.396;16.796;2023-04-24T06:55:22;13;11;9
44045;PMS7003;29709;52.396;16.796;2023-04-24T06:58:35;13;11;8
44045;PMS7003;29709;52.396;16.796;2023-04-24T07:01:48;14;11;9
44045;PMS7003;29709;52.396;16.796;2023-04-24T07:05:01;11;9;8
44045;PMS7003;29709;52.396;16.796;2023-04-24T07:08:15;10;10;8
44045;PMS7003;29709;52.396;16.796;2023-04-24T07:11:30;9;8;6
44045;PMS7003;29709;52.396;16.796;2023-04-24T07:14:43;11;9;8
44045;PMS7003;29709;52.396;16.796;2023-04-24T07:17:57;11;10;8
44045;PMS7003;29709;52.396;16.796;2023-04-24T07:21:10;14;10;8
44045;PMS7003;29709;52.396;16.796;2023-04-24T07:24:24;12;11;9
44045;PMS7003;29709;52.396;16.796;2023-04-24T07:27:38;11;9;8
44045;PMS7003;29709;52.396;16.796;2023-04-24T07:30:51;9;8;7
44045;PMS7003;29709;52.396;16.796;2023-04-24T07:34:06;11;11;9
44045;PMS7003;29709;52.396;16.796;2023-04-24T07:37:19;12;10;8
44045;PMS7003;29709;52.396;16.796;2023-04-24T07:40:33;14;12;9
44045;PMS7003;29709;52.396;16.796;2023-04-24T07:43:46;13;11;8
44045;PMS7003;29709;52.396;16.796;2023-04-24T07:46:59;10;9;8
44045;PMS7003;29709;52.396;16.796;2023-04-24T07:50:12;11;9;7
44045;PMS7003;29709;52.396;16.796;2023-04-24T07:53:26;13;12;9
44045;PMS7003;29709;52.396;16.796;2023-04-24T07:56:39;11;9;8
44045;PMS7003;29709;52.396;16.796;2023-04-24T07:59:55;13;12;10
44045;PMS7003;29709;52.396;16.796;2023-04-24T08:03:08;13;10;8
44045;PMS7003;29709;52.396;16.796;2023-04-24T08:06:21;12;10;8
44045;PMS7003;29709;52.396;16.796;2023-04-24T08:09:35;11;8;7
44045;PMS7003;29709;52.396;16.796;2023-04-24T08:12:48;15;12;9
44045;PMS7003;29709;52.396;16.796;2023-04-24T08:16:03;12;11;9
44045;PMS7003;29709;52.396;16.796;2023-04-24T08:19:16;10;7;6
44045;PMS7003;29709;52.396;16.796;2023-04-24T08:22:30;11;9;6
44045;PMS7003;29709;52.396;16.796;2023-04-24T08:25:49;11;9;7
44045;PMS7003;29709;52.396;16.796;2023-04-24T08:29:02;12;10;8
44045;PMS7003;29709;52.396;16.796;2023-04-24T08:32:16;12;10;7
44045;PMS7003;29709;52.396;16.796;2023-04-24T08:35:29;12;11;9
44045;PMS7003;29709;52.396;16.796;2023-04-24T08:38:43;12;10;8
44045;PMS7003;29709;52.396;16.796;2023-04-24T08:41:56;8;6;5
44045;PMS7003;29709;52.396;16.796;2023-04-24T08:45:10;9;9;7
44045;PMS7003;29709;52.396;16.796;2023-04-24T08:48:24;9;8;6
44045;PMS7003;29709;52.396;16.796;2023-04-24T08:51:38;11;6;5
44045;PMS7003;29709;52.396;16.796;2023-04-24T08:54:52;12;9;7
44045;PMS7003;29709;52.396;16.796;2023-04-24T08:58:07;12;9;8
44045;PMS7003;29709;52.396;16.796;2023-04-24T09:01:21;11;10;7
44045;PMS7003;29709;52.396;16.796;2023-04-24T09:04:37;10;8;6
44045;PMS7003;29709;52.396;16.796;2023-04-24T09:07:53;12;9;6
44045;PMS7003;29709;52.396;16.796;2023-04-24T09:11:08;10;9;7
44045;PMS7003;29709;52.396;16.796;2023-04-24T09:14:23;12;9;7
44045;PMS7003;29709;52.396;16.796;2023-04-24T09:17:37;10;9;8
44045;PMS7003;29709;52.396;16.796;2023-04-24T09:24:16;11;10;8
44045;PMS7003;29709;52.396;16.796;2023-04-24T09:27:31;9;8;7
44045;PMS7003;29709;52.396;16.796;2023-04-24T09:30:44;10;9;8
44045;PMS7003;29709;52.396;16.796;2023-04-24T09:33:58;14;10;8
44045;PMS7003;29709;52.396;16.796;2023-04-24T09:40:38;12;9;6
44045;PMS7003;29709;52.396;16.796;2023-04-24T09:43:54;9;8;8
44045;PMS7003;29709;52.396;16.796;2023-04-24T09:47:08;12;10;8
44045;PMS7003;29709;52.396;16.796;2023-04-24T09:50:22;11;8;6
44045;PMS7003;29709;52.396;16.796;2023-04-24T09:53:36;9;7;5
44045;PMS7003;29709;52.396;16.796;2023-04-24T09:56:50;12;11;9
44045;PMS7003;29709;52.396;16.796;2023-04-24T10:00:04;9;5;4
44045;PMS7003;29709;52.396;16.796;2023-04-24T10:03:18;9;9;8
44045;PMS7003;29709;52.396;16.796;2023-04-24T10:06:35;14;11;9
44045;PMS7003;29709;52.396;16.796;2023-04-24T10:09:49;13;11;9
44045;PMS7003;29709;52.396;16.796;2023-04-24T10:13:03;9;7;6
44045;PMS7003;29709;52.396;16.796;2023-04-24T10:16:17;13;12;9
44045;PMS7003;29709;52.396;16.796;2023-04-24T10:19:31;10;9;7
44045;PMS7003;29709;52.396;16.796;2023-04-24T10:22:49;8;7;5
44045;PMS7003;29709;52.396;16.796;2023-04-24T10:26:04;12;10;8
44045;PMS7003;29709;52.396;16.796;2023-04-24T10:29:18;6;6;6
44045;PMS7003;29709;52.396;16.796;2023-04-24T10:32:33;4;3;2
44045;PMS7003;29709;52.396;16.796;2023-04-24T10:35:47;11;9;8
44045;PMS7003;29709;52.396;16.796;2023-04-24T10:39:03;11;9;7
44045;PMS7003;29709;52.396;16.796;2023-04-24T10:42:21;8;6;5
44045;PMS7003;29709;52.396;16.796;2023-04-24T10:45:35;9;7;5
44045;PMS7003;29709;52.396;16.796;2023-04-24T10:52:08;10;7;6
44045;PMS7003;29709;52.396;16.796;2023-04-24T10:58:50;5;5;4
44045;PMS7003;29709;52.396;16.796;2023-04-24T11:02:06;5;5;4
44045;PMS7003;29709;52.396;16.796;2023-04-24T11:05:22;9;8;6
44045;PMS7003;29709;52.396;16.796;2023-04-24T11:08:44;7;7;5
44045;PMS7003;29709;52.396;16.796;2023-04-24T11:15:20;6;3;2
44045;PMS7003;29709;52.396;16.796;2023-04-24T11:18:37;4;4;3
44045;PMS7003;29709;52.396;16.796;2023-04-24T11:25:15;2;1;1
44045;PMS7003;29709;52.396;16.796;2023-04-24T11:28:28;1;1;1
44045;PMS7003;29709;52.396;16.796;2023-04-24T11:31:43;1;1;1
44045;PMS7003;29709;52.396;16.796;2023-04-24T11:35:08;4;3;3
44045;PMS7003;29709;52.396;16.796;2023-04-24T11:38:27;2;1;1
44045;PMS7003;29709;52.396;16.796;2023-04-24T11:41:41;2;1;0
44045;PMS7003;29709;52.396;16.796;2023-04-24T11:44:54;3;2;2
44045;PMS7003;29709;52.396;16.796;2023-04-24T11:48:08;2;2;2
44045;PMS7003;29709;52.396;16.796;2023-04-24T11:51:22;5;5;4
44045;PMS7003;29709;52.396;16.796;2023-04-24T11:54:38;4;2;1
44045;PMS7003;29709;52.396;16.796;2023-04-24T11:57:57;3;2;2
44045;PMS7003;29709;52.396;16.796;2023-04-24T12:01:11;0;0;0
44045;PMS7003;29709;52.396;16.796;2023-04-24T12:04:24;4;4;3
44045;PMS7003;29709;52.396;16.796;2023-04-24T12:10:57;3;1;1
44045;PMS7003;29709;52.396;16.796;2023-04-24T12:14:12;0;0;0
44045;PMS7003;29709;52.396;16.796;2023-04-24T12:20:45;3;2;2
44045;PMS7003;29709;52.396;16.796;2023-04-24T12:23:58;2;2;2
44045;PMS7003;29709;52.396;16.796;2023-04-24T12:27:19;2;1;0
44045;PMS7003;29709;52.396;16.796;2023-04-24T12:30:34;1;1;1
44045;PMS7003;29709;52.396;16.796;2023-04-24T12:33:51;2;2;2
44045;PMS7003;29709;52.396;16.796;2023-04-24T12:40:24;3;1;1
44045;PMS7003;29709;52.396;16.796;2023-04-24T12:43:51;4;2;1
44045;PMS7003;29709;52.396;16.796;2023-04-24T12:47:03;2;1;0
44045;PMS7003;29709;52.396;16.796;2023-04-24T12:50:16;0;0;0
44045;PMS7003;29709;52.396;16.796;2023-04-24T12:53:29;2;1;1
44045;PMS7003;29709;52.396;16.796;2023-04-24T12:56:43;3;2;2
44045;PMS7003;29709;52.396;16.796;2023-04-24T12:59:57;2;2;1
44045;PMS7003;29709;52.396;16.796;2023-04-24T13:03:11;2;2;1
44045;PMS7003;29709;52.396;16.796;2023-04-24T13:06:25;1;0;0
44045;PMS7003;29709;52.396;16.796;2023-04-24T13:09:39;2;2;1
44045;PMS7003;29709;52.396;16.796;2023-04-24T13:12:52;1;0;0
44045;PMS7003;29709;52.396;16.796;2023-04-24T13:16:06;2;1;1
44045;PMS7003;29709;52.396;16.796;2023-04-24T13:19:19;1;1;1
44045;PMS7003;29709;52.396;16.796;2023-04-24T13:22:32;0;0;0
44045;PMS7003;29709;52.396;16.796;2023-04-24T13:25:45;1;0;0
44045;PMS7003;29709;52.396;16.796;2023-04-24T13:29:00;2;2;2
44045;PMS7003;29709;52.396;16.796;2023-04-24T13:32:13;3;1;0
44045;PMS7003;29709;52.396;16.796;2023-04-24T13:35:26;0;0;0
44045;PMS7003;29709;52.396;16.796;2023-04-24T13:38:39;0;0;0
44045;PMS7003;29709;52.396;16.796;2023-04-24T13:41:53;1;0;0
44045;PMS7003;29709;52.396;16.796;2023-04-24T13:45:06;0;0;0
44045;PMS7003;29709;52.396;16.796;2023-04-24T13:48:20;0;0;0
44045;PMS7003;29709;52.396;16.796;2023-04-24T13:51:34;0;0;0
44045;PMS7003;29709;52.396;16.796;2023-04-24T13:54:47;0;0;0
44045;PMS7003;29709;52.396;16.796;2023-04-24T13:58:00;0;0;0
44045;PMS7003;29709;52.396;16.796;2023-04-24T14:01:14;0;0;0
44045;PMS7003;29709;52.396;16.796;2023-04-24T14:04:28;0;0;0
44045;PMS7003;29709;52.396;16.796;2023-04-24T14:07:41;0;0;0
44045;PMS7003;29709;52.396;16.796;2023-04-24T14:10:55;0;0;0
44045;PMS7003;29709;52.396;16.796;2023-04-24T14:14:08;0;0;0
44045;PMS7003;29709;52.396;16.796;2023-04-24T14:17:21;0;0;0
44045;PMS7003;29709;52.396;16.796;2023-04-24T14:20:34;0;0;0
44045;PMS7003;29709;52.396;16.796;2023-04-24T14:23:47;0;0;0
44045;PMS7003;29709;52.396;16.796;2023-04-24T14:27:01;1;0;0
44045;PMS7003;29709;52.396;16.796;2023-04-24T14:30:14;0;0;0
44045;PMS7003;29709;52.396;16.796;2023-04-24T14:33:28;0;0;0
44045;PMS7003;29709;52.396;16.796;2023-04-24T14:36:41;0;0;0
44045;PMS7003;29709;52.396;16.796;2023-04-24T14:39:55;0;0;0
44045;PMS7003;29709;52.396;16.796;2023-04-24T14:43:09;0;0;0
44045;PMS7003;29709;52.396;16.796;2023-04-24T14:46:22;0;0;0
44045;PMS7003;29709;52.396;16.796;2023-04-24T14:49:35;1;0;0
44045;PMS7003;29709;52.396;16.796;2023-04-24T14:52:48;0;0;0
44045;PMS7003;29709;52.396;16.796;2023-04-24T14:56:02;0;0;0
44045;PMS7003;29709;52.396;16.796;2023-04-24T14:59:15;2;0;0
44045;PMS7003;29709;52.396;16.796;2023-04-24T15:02:28;1;0;0
44045;PMS7003;29709;52.396;16.796;2023-04-24T15:05:42;0;0;0
44045;PMS7003;29709;52.396;16.796;2023-04-24T15:08:55;0;0;0
44045;PMS7003;29709;52.396;16.796;2023-04-24T15:12:09;0;0;0
44045;PMS7003;29709;52.396;16.796;2023-04-24T15:15:25;3;0;0
44045;PMS7003;29709;52.396;16.796;2023-04-24T15:18:38;1;1;0
44045;PMS7003;29709;52.396;16.796;2023-04-24T15:21:51;2;1;1
44045;PMS7003;29709;52.396;16.796;2023-04-24T15:25:05;0;0;0
44045;PMS7003;29709;52.396;16.796;2023-04-24T15:28:19;0;0;0
44045;PMS7003;29709;52.396;16.796;2023-04-24T15:31:34;1;1;1
44045;PMS7003;29709;52.396;16.796;2023-04-24T15:34:52;0;0;0
44045;PMS7003;29709;52.396;16.796;2023-04-24T15:38:05;0;0;0
44045;PMS7003;29709;52.396;16.796;2023-04-24T15:41:19;1;1;0
44045;PMS7003;29709;52.396;16.796;2023-04-24T15:44:33;1;0;0
44045;PMS7003;29709;52.396;16.796;2023-04-24T15:47:47;1;0;0
44045;PMS7003;29709;52.396;16.796;2023-04-24T15:51:00;0;0;0
44045;PMS7003;29709;52.396;16.796;2023-04-24T15:54:13;1;0;0
44045;PMS7003;29709;52.396;16.796;2023-04-24T15:57:26;0;0;0
44045;PMS7003;29709;52.396;16.796;2023-04-24T16:00:39;0;0;0
44045;PMS7003;29709;52.396;16.796;2023-04-24T16:03:53;0;0;0
44045;PMS7003;29709;52.396;16.796;2023-04-24T16:07:06;1;1;0
44045;PMS7003;29709;52.396;16.796;2023-04-24T16:10:20;2;1;0
44045;PMS7003;29709;52.396;16.796;2023-04-24T16:13:33;0;0;0
44045;PMS7003;29709;52.396;16.796;2023-04-24T16:16:46;2;1;0
44045;PMS7003;29709;52.396;16.796;2023-04-24T16:20:00;1;1;1
44045;PMS7003;29709;52.396;16.796;2023-04-24T16:23:13;0;0;0
44045;PMS7003;29709;52.396;16.796;2023-04-24T16:26:27;0;0;0
44045;PMS7003;29709;52.396;16.796;2023-04-24T16:29:40;0;0;0
44045;PMS7003;29709;52.396;16.796;2023-04-24T16:32:53;0;0;0
44045;PMS7003;29709;52.396;16.796;2023-04-24T16:36:07;0;0;0
44045;PMS7003;29709;52.396;16.796;2023-04-24T16:39:21;0;0;0
44045;PMS7003;29709;52.396;16.796;2023-04-24T16:42:34;3;2;1
44045;PMS7003;29709;52.396;16.796;2023-04-24T16:45:47;2;1;1
44045;PMS7003;29709;52.396;16.796;2023-04-24T16:49:00;5;5;4
44045;PMS7003;29709;52.396;16.796;2023-04-24T16:52:13;2;1;1
44045;PMS7003;29709;52.396;16.796;2023-04-24T16:55:27;2;2;1
44045;PMS7003;29709;52.396;16.796;2023-04-24T16:58:41;1;0;0
44045;PMS7003;29709;52.396;16.796;2023-04-24T17:01:54;1;1;0
44045;PMS7003;29709;52.396;16.796;2023-04-24T17:05:07;2;1;1
44045;PMS7003;29709;52.396;16.796;2023-04-24T17:08:21;4;4;3
44045;PMS7003;29709;52.396;16.796;2023-04-24T17:11:35;1;1;1
44045;PMS7003;29709;52.396;16.796;2023-04-24T17:14:48;1;1;0
44045;PMS7003;29709;52.396;16.796;2023-04-24T17:18:02;1;1;1
44045;PMS7003;29709;52.396;16.796;2023-04-24T17:21:17;1;1;0
44045;PMS7003;29709;52.396;16.796;2023-04-24T17:24:30;5;3;2
44045;PMS7003;29709;52.396;16.796;2023-04-24T17:27:44;2;2;2
44045;PMS7003;29709;52.396;16.796;2023-04-24T17:30:58;2;2;1
44045;PMS7003;29709;52.396;16.796;2023-04-24T17:34:11;1;1;1
44045;PMS7003;29709;52.396;16.796;2023-04-24T17:37:24;3;1;1
44045;PMS7003;29709;52.396;16.796;2023-04-24T17:40:38;3;2;1
44045;PMS7003;29709;52.396;16.796;2023-04-24T17:43:52;2;2;2
44045;PMS7003;29709;52.396;16.796;2023-04-24T17:47:06;1;1;0
44045;PMS7003;29709;52.396;16.796;2023-04-24T17:50:19;1;0;0
44045;PMS7003;29709;52.396;16.796;2023-04-24T17:53:32;2;1;0
44045;PMS7003;29709;52.396;16.796;2023-04-24T17:56:46;2;2;2
44045;PMS7003;29709;52.396;16.796;2023-04-24T18:00:00;3;2;1
44045;PMS7003;29709;52.396;16.796;2023-04-24T18:03:13;2;2;2
44045;PMS7003;29709;52.396;16.796;2023-04-24T18:06:27;4;2;1
44045;PMS7003;29709;52.396;16.796;2023-04-24T18:09:40;3;2;1
44045;PMS7003;29709;52.396;16.796;2023-04-24T18:12:53;4;2;2
44045;PMS7003;29709;52.396;16.796;2023-04-24T18:16:06;3;2;1
44045;PMS7003;29709;52.396;16.796;2023-04-24T18:19:20;3;3;2
44045;PMS7003;29709;52.396;16.796;2023-04-24T18:22:33;4;3;3
44045;PMS7003;29709;52.396;16.796;2023-04-24T18:25:46;3;3;2
44045;PMS7003;29709;52.396;16.796;2023-04-24T18:28:59;3;2;2
44045;PMS7003;29709;52.396;16.796;2023-04-24T18:32:13;1;1;1
44045;PMS7003;29709;52.396;16.796;2023-04-24T18:35:26;2;1;1
44045;PMS7003;29709;52.396;16.796;2023-04-24T18:38:39;4;3;3
44045;PMS7003;29709;52.396;16.796;2023-04-24T18:41:52;4;4;3
44045;PMS7003;29709;52.396;16.796;2023-04-24T18:45:06;4;3;3
44045;PMS7003;29709;52.396;16.796;2023-04-24T18:48:20;3;3;2
44045;PMS7003;29709;52.396;16.796;2023-04-24T18:51:34;5;5;4
44045;PMS7003;29709;52.396;16.796;2023-04-24T18:54:47;5;5;4
44045;PMS7003;29709;52.396;16.796;2023-04-24T18:58:00;3;3;3
44045;PMS7003;29709;52.396;16.796;2023-04-24T19:01:14;4;3;3
44045;PMS7003;29709;52.396;16.796;2023-04-24T19:04:27;3;3;3
44045;PMS7003;29709;52.396;16.796;2023-04-24T19:07:41;4;3;3
44045;PMS7003;29709;52.396;16.796;2023-04-24T19:10:54;6;5;4
44045;PMS7003;29709;52.396;16.796;2023-04-24T19:14:08;6;5;4
44045;PMS7003;29709;52.396;16.796;2023-04-24T19:17:21;7;6;4
44045;PMS7003;29709;52.396;16.796;2023-04-24T19:20:36;6;4;3
44045;PMS7003;29709;52.396;16.796;2023-04-24T19:23:50;4;3;3
44045;PMS7003;29709;52.396;16.796;2023-04-24T19:27:04;5;4;4
44045;PMS7003;29709;52.396;16.796;2023-04-24T19:30:17;6;6;4
44045;PMS7003;29709;52.396;16.796;2023-04-24T19:33:30;6;4;3
44045;PMS7003;29709;52.396;16.796;2023-04-24T19:36:43;3;2;1
44045;PMS7003;29709;52.396;16.796;2023-04-24T19:39:57;5;4;3
44045;PMS7003;29709;52.396;16.796;2023-04-24T19:43:10;5;5;4
44045;PMS7003;29709;52.396;16.796;2023-04-24T19:46:23;6;6;5
44045;PMS7003;29709;52.396;16.796;2023-04-24T19:49:36;5;4;4
44045;PMS7003;29709;52.396;16.796;2023-04-24T19:52:50;6;5;3
44045;PMS7003;29709;52.396;16.796;2023-04-24T19:56:04;0;0;0
44045;PMS7003;29709;52.396;16.796;2023-04-24T19:59:17;8;5;4
44045;PMS7003;29709;52.396;16.796;2023-04-24T20:02:30;5;5;4
44045;PMS7003;29709;52.396;16.796;2023-04-24T20:05:44;6;5;4
44045;PMS7003;29709;52.396;16.796;2023-04-24T20:08:57;7;6;5
44045;PMS7003;29709;52.396;16.796;2023-04-24T20:12:10;3;2;1
44045;PMS7003;29709;52.396;16.796;2023-04-24T20:15:24;3;3;3
44045;PMS7003;29709;52.396;16.796;2023-04-24T20:18:37;5;4;3
44045;PMS7003;29709;52.396;16.796;2023-04-24T20:21:50;3;3;3
44045;PMS7003;29709;52.396;16.796;2023-04-24T20:25:07;4;3;2
44045;PMS7003;29709;52.396;16.796;2023-04-24T20:28:26;4;4;3
44045;PMS7003;29709;52.396;16.796;2023-04-24T20:31:41;2;2;2
44045;PMS7003;29709;52.396;16.796;2023-04-24T20:34:54;4;3;2
44045;PMS7003;29709;52.396;16.796;2023-04-24T20:38:08;3;3;2
44045;PMS7003;29709;52.396;16.796;2023-04-24T20:41:22;6;4;2
44045;PMS7003;29709;52.396;16.796;2023-04-24T20:44:36;3;3;3
44045;PMS7003;29709;52.396;16.796;2023-04-24T20:47:50;4;4;3
44045;PMS7003;29709;52.396;16.796;2023-04-24T20:51:03;5;5;4
44045;PMS7003;29709;52.396;16.796;2023-04-24T20:54:17;5;4;3
44045;PMS7003;29709;52.396;16.796;2023-04-24T20:57:30;3;3;3
44045;PMS7003;29709;52.396;16.796;2023-04-24T21:00:43;7;5;4
44045;PMS7003;29709;52.396;16.796;2023-04-24T21:03:57;5;3;3
44045;PMS7003;29709;52.396;16.796;2023-04-24T21:07:10;6;5;3
44045;PMS7003;29709;52.396;16.796;2023-04-24T21:10:25;6;5;4
44045;PMS7003;29709;52.396;16.796;2023-04-24T21:13:38;8;5;4
44045;PMS7003;29709;52.396;16.796;2023-04-24T21:16:51;4;3;3
44045;PMS7003;29709;52.396;16.796;2023-04-24T21:20:08;6;5;4
44045;PMS7003;29709;52.396;16.796;2023-04-24T21:23:22;4;3;2
44045;PMS7003;29709;52.396;16.796;2023-04-24T21:26:35;2;2;1
44045;PMS7003;29709;52.396;16.796;2023-04-24T21:29:48;4;3;2
44045;PMS7003;29709;52.396;16.796;2023-04-24T21:33:01;4;3;2
44045;PMS7003;29709;52.396;16.796;2023-04-24T21:36:15;2;2;2
44045;PMS7003;29709;52.396;16.796;2023-04-24T21:39:28;1;0;0
44045;PMS7003;29709;52.396;16.796;2023-04-24T21:42:41;2;2;2